createdAt,value
2022-08-07T00:02:36.575Z,102240.66
2022-08-07T00:05:05.758Z,102212.06
2022-08-07T00:07:40.897Z,102211.50
2022-08-07T00:10:29.686Z,102216.47
2022-08-07T00:13:09.713Z,102196.28
2022-08-07T00:15:52.260Z,102220.19
2022-08-07T00:18:24.616Z,102223.28
2022-08-07T00:20:54.971Z,102226.56
2022-08-07T00:23:28.461Z,102235.47
2022-08-07T00:26:02.792Z,102212.47
2022-08-07T00:28:45.582Z,102223.50
2022-08-07T00:31:16.674Z,102223.41
2022-08-07T00:33:47.943Z,102186.47
2022-08-07T00:36:16.735Z,102215.25
2022-08-07T00:38:45.444Z,102205.88
2022-08-07T00:41:15.074Z,102199.34
2022-08-07T00:44:00.315Z,102220.78
2022-08-07T00:46:33.115Z,102207.19
2022-08-07T00:49:03.818Z,102189.56
2022-08-07T00:51:57.319Z,102174.44
2022-08-07T00:54:20.782Z,102207.97
2022-08-07T00:56:51.270Z,102185.84
2022-08-07T00:59:20.168Z,102197.00
2022-08-07T01:02:02.777Z,102231.22
2022-08-07T01:04:37.450Z,102184.81
2022-08-07T01:07:12.778Z,102215.38
2022-08-07T01:10:06.350Z,102185.72
2022-08-07T01:12:31.109Z,102224.41
2022-08-07T01:15:03.882Z,102190.59
2022-08-07T01:17:36.124Z,102217.28
2022-08-07T01:20:17.197Z,102209.84
2022-08-07T01:23:00.658Z,102232.25
2022-08-07T01:25:40.429Z,102214.84
2022-08-07T01:28:26.320Z,102215.16
2022-08-07T01:30:57.375Z,102192.09
2022-08-07T01:33:30.149Z,102180.03
2022-08-07T01:36:16.859Z,102209.97
2022-08-07T01:38:47.093Z,102218.56
2022-08-07T01:41:26.240Z,102183.72
2022-08-07T01:43:55.439Z,102202.31
2022-08-07T01:46:24.080Z,102198.97
2022-08-07T01:48:54.142Z,102219.81
2022-08-07T01:52:03.296Z,102201.41
2022-08-07T01:54:32.555Z,102186.66
2022-08-07T01:57:08.394Z,102206.84
2022-08-07T01:59:43.954Z,102204.25
2022-08-07T02:02:32.603Z,102199.78
2022-08-07T02:05:05.004Z,102183.59
2022-08-07T02:07:50.650Z,102186.66
2022-08-07T02:10:26.125Z,102163.38
2022-08-07T02:12:57.958Z,102193.72
2022-08-07T02:15:31.247Z,102188.66
2022-08-07T02:18:03.931Z,102192.91
2022-08-07T02:20:34.741Z,102167.88
2022-08-07T02:23:05.841Z,102182.06
2022-08-07T02:26:26.783Z,102145.41
2022-08-07T02:28:30.489Z,102171.63
2022-08-07T02:31:01.794Z,102171.81
2022-08-07T02:34:03.436Z,102162.13
2022-08-07T02:36:34.317Z,102168.28
2022-08-07T02:39:15.972Z,102159.53
2022-08-07T02:41:54.492Z,102154.34
2022-08-07T02:44:27.684Z,102165.63
2022-08-07T02:47:05.117Z,102156.84
2022-08-07T02:49:57.710Z,102138.34
2022-08-07T02:52:31.165Z,102153.41
2022-08-07T02:55:04.178Z,102159.50
2022-08-07T02:57:38.452Z,102160.38
2022-08-07T03:00:11.023Z,102169.34
2022-08-07T03:02:54.651Z,102149.13
2022-08-07T03:05:25.393Z,102144.84
2022-08-07T03:08:07.514Z,102158.75
2022-08-07T03:10:41.049Z,102140.47
2022-08-07T03:13:19.813Z,102156.50
2022-08-07T03:15:56.345Z,102134.25
2022-08-07T03:18:34.275Z,102127.91
2022-08-07T03:21:08.699Z,102119.88
2022-08-07T03:24:19.927Z,102156.63
2022-08-07T03:26:34.502Z,102130.16
2022-08-07T03:29:11.009Z,102135.41
2022-08-07T03:31:42.481Z,102113.97
2022-08-07T03:34:18.159Z,102132.84
2022-08-07T03:36:51.870Z,102137.47
2022-08-07T03:39:56.550Z,102112.19
2022-08-07T03:42:11.398Z,102145.53
2022-08-07T03:44:47.171Z,102134.22
2022-08-07T03:47:29.615Z,102128.13
2022-08-07T03:50:25.154Z,102136.94
2022-08-07T03:53:08.344Z,102144.06
2022-08-07T03:55:53.130Z,102120.38
2022-08-07T03:59:06.835Z,102143.22
2022-08-07T04:01:18.418Z,102146.41
2022-08-07T04:03:53.845Z,102138.84
2022-08-07T04:06:37.082Z,102151.09
2022-08-07T04:09:15.881Z,102151.72
2022-08-07T04:12:26.911Z,102148.19
2022-08-07T04:14:43.794Z,102157.72
2022-08-07T04:17:21.178Z,102136.75
2022-08-07T04:19:54.058Z,102143.06
2022-08-07T04:22:27.617Z,102141.41
2022-08-07T04:25:01.075Z,102161.88
2022-08-07T04:27:35.917Z,102145.38
2022-08-07T04:30:21.677Z,102151.31
2022-08-07T04:33:01.114Z,102133.38
2022-08-07T04:35:36.181Z,102150.63
2022-08-07T04:38:09.059Z,102166.38
2022-08-07T04:40:51.245Z,102120.19
2022-08-07T04:44:10.532Z,102121.78
2022-08-07T04:46:20.101Z,102148.81
2022-08-07T04:49:17.859Z,102115.31
2022-08-07T04:51:54.957Z,102139.69
2022-08-07T04:54:32.201Z,102125.63
2022-08-07T04:58:11.765Z,102130.63
2022-08-07T05:00:11.268Z,102119.16
2022-08-07T05:02:49.918Z,102115.44
2022-08-07T05:05:51.742Z,102141.59
2022-08-07T05:08:19.963Z,102111.00
2022-08-07T05:11:19.059Z,102139.84
2022-08-07T05:14:55.793Z,102113.53
2022-08-07T05:17:00.330Z,102144.94
2022-08-07T05:19:45.189Z,102148.53
2022-08-07T05:22:19.098Z,102139.56
2022-08-07T05:24:57.348Z,102130.44
2022-08-07T05:28:03.523Z,102144.31
2022-08-07T05:30:21.145Z,102152.00
2022-08-07T05:33:03.523Z,102152.72
2022-08-07T05:35:41.792Z,102161.22
2022-08-07T05:38:58.194Z,102155.78
2022-08-07T05:41:12.279Z,102124.81
2022-08-07T05:44:08.537Z,102148.06
2022-08-07T05:46:36.416Z,102156.34
2022-08-07T05:49:12.069Z,102132.44
2022-08-07T05:51:42.543Z,102108.16
2022-08-07T05:54:31.211Z,102134.84
2022-08-07T05:57:00.439Z,102123.13
2022-08-07T05:59:30.050Z,102157.59
2022-08-07T06:02:22.632Z,102135.00
2022-08-07T06:05:05.181Z,102133.63
2022-08-07T06:08:12.942Z,102141.69
2022-08-07T06:10:25.377Z,102139.59
2022-08-07T06:12:54.070Z,102139.06
2022-08-07T06:15:39.224Z,102127.53
2022-08-07T06:18:13.983Z,102126.91
2022-08-07T06:20:50.546Z,102155.19
2022-08-07T06:24:38.526Z,102204.22
2022-08-07T06:26:29.411Z,102388.72
2022-08-07T06:29:06.545Z,102490.31
2022-08-07T06:31:47.261Z,102581.41
2022-08-07T06:34:20.881Z,102563.25
2022-08-07T06:36:51.934Z,102476.53
2022-08-07T06:40:17.475Z,102478.59
2022-08-07T06:42:19.275Z,102148.59
2022-08-07T06:44:51.128Z,101648.84
2022-08-07T06:47:22.863Z,102132.53
2022-08-07T06:49:58.522Z,102184.34
2022-08-07T06:52:35.504Z,102157.66
2022-08-07T06:55:34.502Z,102226.28
2022-08-07T06:58:02.175Z,102209.94
2022-08-07T07:00:39.188Z,102188.28
2022-08-07T07:03:17.012Z,102179.28
2022-08-07T07:06:04.027Z,102173.84
2022-08-07T07:08:46.675Z,102154.91
2022-08-07T07:12:07.912Z,102169.91
2022-08-07T07:14:39.218Z,102149.28
2022-08-07T07:17:39.629Z,102114.81
2022-08-07T07:20:29.742Z,102142.69
2022-08-07T07:24:09.133Z,102111.50
2022-08-07T07:26:35.720Z,102122.22
2022-08-07T07:29:40.434Z,102105.09
2022-08-07T07:32:11.465Z,102115.38
2022-08-07T07:34:49.597Z,102072.63
2022-08-07T07:37:45.301Z,102095.91
2022-08-07T07:40:51.927Z,102067.13
2022-08-07T07:44:14.475Z,102087.53
2022-08-07T07:46:55.164Z,102089.59
2022-08-07T07:50:33.518Z,102085.41
2022-08-07T07:52:31.645Z,102066.31
2022-08-07T07:55:04.575Z,102042.47
2022-08-07T07:57:50.629Z,102069.22
2022-08-07T08:00:34.096Z,102075.25
2022-08-07T08:03:16.328Z,102066.25
2022-08-07T08:05:55.691Z,102035.19
2022-08-07T08:08:35.448Z,102051.66
2022-08-07T08:11:16.640Z,102039.31
2022-08-07T08:13:59.954Z,102033.72
2022-08-07T08:16:37.650Z,102016.22
2022-08-07T08:19:17.734Z,101993.28
2022-08-07T08:22:32.592Z,102022.09
2022-08-07T08:25:42.570Z,102012.69
2022-08-07T08:28:24.041Z,102007.59
2022-08-07T08:31:16.150Z,101997.03
2022-08-07T08:34:12.445Z,102025.66
2022-08-07T08:37:00.226Z,102002.97
2022-08-07T08:39:54.927Z,102005.34
2022-08-07T08:42:54.076Z,101979.09
2022-08-07T08:48:57.063Z,101963.19
2022-08-07T08:51:49.902Z,102001.56
2022-08-07T08:54:26.517Z,101972.47
2022-08-07T08:56:59.455Z,101967.38
2022-08-07T08:59:42.109Z,101972.69
2022-08-07T09:02:36.475Z,101951.97
2022-08-07T09:05:24.936Z,101933.50
2022-08-07T09:08:10.947Z,101966.81
2022-08-07T09:10:49.212Z,101942.38
2022-08-07T09:13:37.088Z,101946.41
2022-08-07T09:16:21.764Z,101938.66
2022-08-07T09:19:44.774Z,101973.31
2022-08-07T09:24:28.666Z,101953.59
2022-08-07T09:25:17.625Z,101917.19
2022-08-07T09:28:00.002Z,101936.84
2022-08-07T09:31:00.142Z,101925.50
2022-08-07T09:33:57.837Z,101904.44
2022-08-07T09:36:35.720Z,101933.56
2022-08-07T09:39:55.163Z,101929.31
2022-08-07T09:42:54.171Z,101908.72
2022-08-07T09:47:23.619Z,101886.56
2022-08-07T09:49:02.322Z,101886.59
2022-08-07T09:52:16.384Z,101900.56
2022-08-07T09:54:59.061Z,101908.50
2022-08-07T09:57:56.872Z,101904.06
2022-08-07T10:00:55.737Z,101893.06
2022-08-07T10:04:05.538Z,101868.28
2022-08-07T10:06:49.146Z,101878.19
2022-08-07T10:09:58.819Z,101871.31
2022-08-07T10:12:53.937Z,101903.81
2022-08-07T10:15:51.010Z,101870.72
2022-08-07T10:18:41.602Z,101876.06
2022-08-07T10:22:12.294Z,101872.28
2022-08-07T10:24:55.317Z,101837.81
2022-08-07T10:27:45.933Z,101861.31
2022-08-07T10:30:19.593Z,101827.56
2022-08-07T10:33:23.670Z,101829.31
2022-08-07T10:36:29.275Z,101824.50
2022-08-07T10:39:13.510Z,101832.25
2022-08-07T10:41:53.231Z,101835.03
2022-08-07T10:44:38.625Z,101796.50
2022-08-07T10:47:27.010Z,101820.53
2022-08-07T10:50:25.855Z,101786.56
2022-08-07T10:53:09.638Z,101778.75
2022-08-07T10:55:45.611Z,101761.00
2022-08-07T10:58:36.428Z,101773.91
2022-08-07T11:01:22.367Z,101770.84
2022-08-07T11:04:16.738Z,101773.38
2022-08-07T11:07:04.436Z,101772.22
2022-08-07T11:10:10.127Z,101734.03
2022-08-07T11:12:44.475Z,101723.50
2022-08-07T11:15:31.963Z,101718.59
2022-08-07T11:18:04.737Z,101721.41
2022-08-07T11:20:43.071Z,101716.41
2022-08-07T11:23:30.857Z,101684.38
2022-08-07T11:26:16.441Z,101716.47
2022-08-07T11:28:53.480Z,101695.25
2022-08-07T11:31:33.248Z,101721.69
2022-08-07T11:34:10.988Z,101719.16
2022-08-07T11:36:46.013Z,101710.56
2022-08-07T11:39:59.503Z,101718.88
2022-08-07T11:42:29.719Z,101662.81
2022-08-07T11:45:12.365Z,101713.06
2022-08-07T11:47:58.961Z,101701.66
2022-08-07T11:50:44.493Z,101680.13
2022-08-07T11:54:00.568Z,101653.19
2022-08-07T11:56:41.306Z,101693.19
2022-08-07T12:00:12.183Z,101690.13
2022-08-07T12:02:35.820Z,101656.75
2022-08-07T12:05:28.485Z,101653.56
2022-08-07T12:08:26.031Z,101654.75
2022-08-07T12:11:21.895Z,101672.81
2022-08-07T12:13:57.902Z,101651.78
2022-08-07T12:16:30.867Z,101673.47
2022-08-07T12:19:08.033Z,101697.50
2022-08-07T12:22:35.838Z,101679.38
2022-08-07T12:24:40.173Z,101651.75
2022-08-07T12:27:28.148Z,101667.59
2022-08-07T12:30:11.737Z,101658.34
2022-08-07T12:32:53.633Z,101685.59
2022-08-07T12:35:29.287Z,101684.34
2022-08-07T12:38:16.155Z,101658.09
2022-08-07T12:41:11.472Z,101672.81
2022-08-07T12:44:01.936Z,101681.09
2022-08-07T12:46:52.149Z,101655.53
2022-08-07T12:49:48.532Z,101621.56
2022-08-07T12:52:33.992Z,101628.47
2022-08-07T12:55:09.643Z,101615.38
2022-08-07T12:57:59.261Z,101635.53
2022-08-07T13:00:49.438Z,101656.34
2022-08-07T13:03:54.855Z,101672.56
2022-08-07T13:15:58.968Z,101643.56
2022-08-07T13:18:35.776Z,101624.81
2022-08-07T13:21:51.726Z,101650.41
2022-08-07T13:28:10.789Z,101603.28
2022-08-07T13:30:48.987Z,101601.81
2022-08-07T14:12:27.586Z,101637.50
2022-08-07T14:15:01.864Z,101600.84
2022-08-07T14:18:24.163Z,101603.19
2022-08-07T14:20:42.977Z,101606.69
2022-08-07T14:23:59.117Z,101590.28
2022-08-07T14:26:28.428Z,101581.88
2022-08-07T14:29:05.899Z,101594.22
2022-08-07T14:31:56.570Z,101584.31
2022-08-07T14:34:30.233Z,101584.22
2022-08-07T14:37:03.390Z,101612.22
2022-08-07T14:40:16.470Z,101625.53
2022-08-07T14:42:32.323Z,101615.44
2022-08-07T14:45:21.547Z,101610.97
2022-08-07T14:50:48.299Z,101600.13
2022-08-07T14:54:03.679Z,101611.13
2022-08-07T14:59:13.820Z,101615.91
2022-08-07T15:01:58.715Z,101586.69
2022-08-07T15:04:31.551Z,101559.88
2022-08-07T15:07:17.574Z,101584.31
2022-08-07T15:12:42.178Z,101600.69
2022-08-07T15:15:21.360Z,101560.16
2022-08-07T15:17:57.435Z,101559.38
2022-08-07T15:20:55.745Z,101583.81
2022-08-07T15:25:14.521Z,101562.13
2022-08-07T15:26:37.041Z,101563.91
2022-08-07T15:30:09.206Z,101566.97
2022-08-07T15:42:43.799Z,101526.00
2022-08-07T15:44:53.936Z,101523.44
2022-08-07T15:53:17.877Z,101544.25
2022-08-07T15:56:02.979Z,101531.13
2022-08-07T15:58:42.614Z,101495.25
2022-08-07T16:01:46.232Z,101535.81
2022-08-07T16:04:35.101Z,101526.44
2022-08-07T16:08:30.742Z,101523.19
2022-08-07T16:10:32.405Z,101540.75
2022-08-07T16:13:59.679Z,101537.78
2022-08-07T16:18:02.820Z,101549.16
2022-08-07T16:20:55.268Z,101532.63
2022-08-07T16:23:58.432Z,101525.59
2022-08-07T16:27:04.604Z,101546.44
2022-08-07T16:30:29.441Z,101586.97
2022-08-07T16:34:03.396Z,101540.75
2022-08-07T16:36:19.983Z,101557.88
2022-08-07T16:39:40.614Z,101558.56
2022-08-07T16:42:43.610Z,101529.22
2022-08-07T16:46:20.969Z,101545.25
2022-08-07T16:52:50.771Z,101539.56
2022-08-07T16:55:21.770Z,101544.19
2022-08-07T16:58:03.988Z,101513.03
2022-08-07T17:00:42.211Z,101501.84
2022-08-07T17:03:57.700Z,101519.47
2022-08-07T17:06:31.172Z,101519.16
2022-08-07T17:09:14.117Z,101495.94
2022-08-07T17:12:04.914Z,101494.34
2022-08-07T17:14:45.174Z,101506.78
2022-08-07T17:17:27.260Z,101520.66
2022-08-07T17:20:21.510Z,101494.56
2022-08-07T17:22:58.533Z,101511.63
2022-08-07T17:25:51.097Z,101510.91
2022-08-07T17:28:32.452Z,101508.97
2022-08-07T17:31:17.559Z,101506.50
2022-08-07T17:34:18.295Z,101509.94
2022-08-07T17:36:58.095Z,101503.59
2022-08-07T17:39:58.943Z,101535.88
2022-08-07T17:42:58.567Z,101524.28
2022-08-07T17:45:35.169Z,101512.19
2022-08-07T17:48:12.958Z,101556.19
2022-08-07T17:50:58.164Z,101561.47
2022-08-07T17:54:00.732Z,101520.03
2022-08-07T17:56:49.326Z,101540.03
2022-08-07T17:59:36.007Z,101532.44
2022-08-07T18:02:27.390Z,101574.44
2022-08-07T18:05:20.779Z,101557.31
2022-08-07T18:08:31.023Z,101539.41
2022-08-07T18:12:06.698Z,101554.41
2022-08-07T18:14:53.075Z,101524.75
2022-08-07T18:18:45.267Z,101564.41
2022-08-07T18:22:00.493Z,101581.25
2022-08-07T18:24:46.508Z,101581.09
2022-08-07T18:27:50.252Z,101626.91
2022-08-07T18:30:32.998Z,101592.41
2022-08-07T18:33:37.875Z,101629.41
2022-08-07T18:36:33.354Z,101624.97
2022-08-07T18:40:05.778Z,101563.28
2022-08-07T18:42:24.026Z,101467.16
2022-08-07T18:45:43.304Z,101438.56
2022-08-07T18:48:00.901Z,101395.84
2022-08-07T18:51:06.138Z,101340.03
2022-08-07T18:53:55.453Z,101364.66
2022-08-07T18:56:57.821Z,101373.50
2022-08-07T19:00:00.579Z,101417.41
2022-08-07T19:02:42.633Z,101612.03
2022-08-07T19:05:21.515Z,101802.56
2022-08-07T19:07:58.211Z,101897.66
2022-08-07T19:10:49.448Z,102047.38
2022-08-07T19:13:24.457Z,102168.03
2022-08-07T19:16:03.407Z,102256.34
2022-08-07T19:18:45.108Z,102217.69
2022-08-07T19:21:51.058Z,102191.53
2022-08-07T19:24:30.430Z,102208.00
2022-08-07T19:28:28.714Z,102259.38
2022-08-07T19:31:02.150Z,102279.16
2022-08-07T19:32:51.381Z,102290.66
2022-08-07T19:35:22.316Z,102310.81
2022-08-07T19:37:57.957Z,102313.63
2022-08-07T19:40:31.008Z,102281.69
2022-08-07T19:43:02.568Z,102254.09
2022-08-07T19:46:05.128Z,102213.78
2022-08-07T19:48:42.169Z,102189.59
2022-08-07T19:51:19.569Z,102170.25
2022-08-07T19:54:35.149Z,102162.78
2022-08-07T19:57:51.849Z,102127.03
2022-08-07T19:59:40.834Z,102105.28
2022-08-07T20:02:19.818Z,102104.25
2022-08-07T20:04:56.113Z,102140.38
2022-08-07T20:07:47.121Z,102100.69
2022-08-07T20:10:35.396Z,102089.69
2022-08-07T20:13:22.930Z,102049.00
2022-08-07T20:15:57.901Z,102052.66
2022-08-07T20:18:32.735Z,102023.81
2022-08-07T20:21:14.517Z,102044.06
2022-08-07T20:24:00.372Z,101999.63
2022-08-07T20:26:32.574Z,102012.09
2022-08-07T20:29:46.958Z,101993.91
2022-08-07T20:32:02.658Z,101992.28
2022-08-07T20:34:50.033Z,101993.66
2022-08-07T20:37:29.786Z,102032.16
2022-08-07T20:40:04.989Z,102014.28
2022-08-07T20:42:56.144Z,102020.66
2022-08-07T20:45:33.396Z,102074.53
2022-08-07T20:48:30.005Z,102077.84
2022-08-07T20:51:01.430Z,102089.50
2022-08-07T20:54:03.405Z,102078.56
2022-08-07T20:56:32.447Z,102082.38
2022-08-07T20:59:05.419Z,102085.25
2022-08-07T21:01:54.820Z,102110.56
2022-08-07T21:04:29.635Z,102105.34
2022-08-07T21:07:04.321Z,102098.34
2022-08-07T21:09:53.155Z,102080.22
2022-08-07T21:12:31.460Z,102096.78
2022-08-07T21:15:04.396Z,102078.47
2022-08-07T21:18:29.419Z,102075.53
2022-08-07T21:20:30.428Z,102052.69
2022-08-07T21:23:08.449Z,102055.59
2022-08-07T21:25:56.674Z,102066.53
2022-08-07T21:28:48.479Z,102061.91
2022-08-07T21:31:49.534Z,102078.88
2022-08-07T21:34:26.752Z,102080.72
2022-08-07T21:41:22.725Z,102058.34
2022-08-07T21:48:42.575Z,102061.28
2022-08-07T21:52:11.545Z,102047.78
2022-08-07T22:11:12.343Z,102060.28
2022-08-07T22:18:38.789Z,102007.69
2022-08-07T22:25:48.956Z,102019.97
2022-08-07T22:28:32.511Z,102002.53
2022-08-07T22:31:07.849Z,101997.34
2022-08-07T22:33:52.633Z,102006.16
2022-08-07T22:36:38.457Z,102038.53
2022-08-07T22:39:23.582Z,102020.16
2022-08-07T22:42:18.984Z,102014.53
2022-08-07T22:44:59.548Z,101983.19
2022-08-07T22:47:55.248Z,102008.25
2022-08-07T22:50:53.525Z,101990.25
2022-08-07T22:54:06.685Z,102026.75
2022-08-07T22:56:34.945Z,102012.09
2022-08-07T22:59:40.702Z,101989.44
2022-08-07T23:02:27.568Z,102020.75
2022-08-07T23:06:07.200Z,101987.63
2022-08-07T23:08:31.547Z,102004.66
2022-08-07T23:11:15.442Z,102015.28
2022-08-07T23:14:15.201Z,102009.56
2022-08-07T23:17:03.295Z,102008.19
2022-08-07T23:20:04.482Z,101981.94
2022-08-07T23:22:45.147Z,101994.78
2022-08-07T23:25:28.254Z,102006.38
2022-08-07T23:28:36.337Z,102008.75
2022-08-07T23:32:48.720Z,101970.19
2022-08-07T23:34:46.346Z,102015.47
2022-08-07T23:38:00.438Z,102020.28
2022-08-07T23:40:42.457Z,101988.13
2022-08-07T23:43:52.759Z,102025.00
2022-08-07T23:46:57.037Z,102010.75
2022-08-07T23:50:11.934Z,101983.66
2022-08-07T23:53:01.447Z,102003.72
2022-08-07T23:55:51.909Z,102008.34
2022-08-07T23:58:27.471Z,102032.84
